createdAt,value
2022-08-16T00:02:58.763Z,24.60
2022-08-16T00:06:02.502Z,24.95
2022-08-16T00:09:06.124Z,26.13
2022-08-16T00:12:09.283Z,22.70
2022-08-16T00:15:17.336Z,30.50
2022-08-16T00:18:22.136Z,56.00
2022-08-16T00:21:32.347Z,31.83
2022-08-16T00:24:35.618Z,25.07
2022-08-16T00:27:38.846Z,22.98
2022-08-16T00:30:42.130Z,34.53
2022-08-16T00:33:50.124Z,37.85
2022-08-16T00:36:55.970Z,34.55
2022-08-16T00:39:59.215Z,36.22
2022-08-16T00:43:03.240Z,17.85
2022-08-16T00:46:33.885Z,20.75
2022-08-16T00:49:44.340Z,24.98
2022-08-16T00:52:50.893Z,20.52
2022-08-16T00:55:59.513Z,43.63
2022-08-16T00:59:04.584Z,18.10
2022-08-16T01:02:30.554Z,22.75
2022-08-16T01:05:33.617Z,21.08
2022-08-16T01:08:38.027Z,22.23
2022-08-16T01:11:54.058Z,18.70
2022-08-16T01:15:00.834Z,23.75
2022-08-16T01:18:07.335Z,24.02
2022-08-16T01:21:39.865Z,18.98
2022-08-16T01:24:55.443Z,19.20
2022-08-16T01:28:04.738Z,20.73
2022-08-16T01:31:09.292Z,19.38
2022-08-16T01:37:35.845Z,22.42
2022-08-16T01:40:40.664Z,18.50
2022-08-16T01:43:45.742Z,17.20
2022-08-16T01:46:58.154Z,28.40
2022-08-16T01:50:43.305Z,25.45
2022-08-16T01:53:29.409Z,27.90
2022-08-16T01:56:41.639Z,20.40
2022-08-16T01:59:45.446Z,24.20
2022-08-16T02:02:53.910Z,23.52
2022-08-16T02:05:57.512Z,24.40
2022-08-16T02:09:01.627Z,16.73
2022-08-16T02:12:49.483Z,18.83
2022-08-16T02:15:38.730Z,18.77
2022-08-16T02:18:48.618Z,23.55
2022-08-16T02:22:08.862Z,25.67
2022-08-16T02:25:18.127Z,22.15
2022-08-16T02:28:23.533Z,19.75
2022-08-16T02:32:02.653Z,15.23
2022-08-16T02:34:50.940Z,11.27
2022-08-16T02:38:08.704Z,10.73
2022-08-16T02:41:14.411Z,11.23
2022-08-16T02:44:18.854Z,13.38
2022-08-16T02:47:26.221Z,8.88
2022-08-16T02:50:54.053Z,8.85
2022-08-16T02:53:53.658Z,8.48
2022-08-16T02:56:59.667Z,7.95
2022-08-16T03:00:34.372Z,5.43
2022-08-16T03:04:28.940Z,9.18
2022-08-16T03:06:57.263Z,7.82
2022-08-16T03:10:14.528Z,7.38
2022-08-16T03:13:24.458Z,6.85
2022-08-16T03:16:38.236Z,6.25
2022-08-16T03:19:48.367Z,8.30
2022-08-16T03:23:01.844Z,6.30
2022-08-16T03:26:06.095Z,5.20
2022-08-16T03:29:09.837Z,9.15
2022-08-16T03:32:13.781Z,7.97
2022-08-16T03:35:20.487Z,9.55
2022-08-16T03:38:32.745Z,7.35
2022-08-16T03:41:49.741Z,7.43
2022-08-16T03:45:03.325Z,5.32
2022-08-16T03:48:15.195Z,7.53
2022-08-16T03:51:25.366Z,4.13
2022-08-16T03:54:36.280Z,4.22
2022-08-16T03:57:40.743Z,4.93
2022-08-16T04:00:46.525Z,4.20
2022-08-16T04:04:00.206Z,3.55
2022-08-16T04:07:07.393Z,5.05
2022-08-16T04:10:36.002Z,6.45
2022-08-16T04:13:59.891Z,5.03
2022-08-16T04:17:05.589Z,6.60
2022-08-16T04:20:31.401Z,5.78
2022-08-16T04:23:40.590Z,5.35
2022-08-16T04:26:46.555Z,4.28
2022-08-16T04:29:52.301Z,4.28
2022-08-16T04:32:56.165Z,6.45
2022-08-16T04:36:05.013Z,5.75
2022-08-16T04:39:10.023Z,7.10
2022-08-16T04:42:26.255Z,8.65
2022-08-16T04:45:35.711Z,3.35
2022-08-16T04:48:43.345Z,6.68
2022-08-16T04:51:53.918Z,5.78
2022-08-16T04:54:58.861Z,2.90
2022-08-16T05:01:58.362Z,2.65
2022-08-16T05:04:51.138Z,5.70
2022-08-16T05:07:59.603Z,2.00
2022-08-16T05:11:09.033Z,3.92
2022-08-16T05:14:20.193Z,4.20
2022-08-16T05:17:36.557Z,6.68
2022-08-16T05:20:54.206Z,5.35
2022-08-16T05:24:06.150Z,6.55
2022-08-16T05:27:12.081Z,7.22
2022-08-16T05:30:34.852Z,3.97
2022-08-16T05:33:45.401Z,5.20
2022-08-16T05:36:59.674Z,3.60
2022-08-16T05:40:13.239Z,1.85
2022-08-16T05:43:17.948Z,4.32
2022-08-16T05:46:29.731Z,5.22
2022-08-16T05:49:42.229Z,4.22
2022-08-16T05:52:47.977Z,2.72
2022-08-16T05:55:53.548Z,8.32
2022-08-16T05:58:56.925Z,5.00
2022-08-16T06:02:00.079Z,7.13
2022-08-16T06:05:11.023Z,5.22
2022-08-16T06:08:31.885Z,4.93
2022-08-16T06:11:39.175Z,2.25
2022-08-16T06:14:46.528Z,2.88
2022-08-16T06:17:56.744Z,5.60
2022-08-16T06:21:02.343Z,7.85
2022-08-16T06:24:54.477Z,3.75
2022-08-16T06:27:39.610Z,9.02
2022-08-16T06:30:45.227Z,8.18
2022-08-16T06:33:51.755Z,5.05
2022-08-16T06:36:59.566Z,6.20
2022-08-16T06:40:05.517Z,5.30
2022-08-16T06:43:21.977Z,7.72
2022-08-16T06:46:43.395Z,7.55
2022-08-16T06:49:56.033Z,8.73
2022-08-16T06:53:14.911Z,4.43
2022-08-16T06:56:28.396Z,5.38
2022-08-16T06:59:53.202Z,3.40
2022-08-16T07:03:26.497Z,3.55
2022-08-16T07:06:32.548Z,4.45
2022-08-16T07:09:41.657Z,14.10
2022-08-16T07:12:47.539Z,14.25
2022-08-16T07:16:12.713Z,17.70
2022-08-16T07:19:20.753Z,14.18
2022-08-16T07:22:37.942Z,10.32
2022-08-16T07:25:53.703Z,11.18
2022-08-16T07:28:59.088Z,7.57
2022-08-16T07:32:02.306Z,8.40
2022-08-16T07:35:08.112Z,6.20
2022-08-16T07:38:11.815Z,7.22
2022-08-16T07:41:22.864Z,3.45
2022-08-16T07:44:50.699Z,4.05
2022-08-16T07:47:54.600Z,5.68
2022-08-16T07:51:01.608Z,5.40
2022-08-16T07:54:17.099Z,5.28
2022-08-16T07:57:32.269Z,16.67
2022-08-16T08:00:39.910Z,4.15
2022-08-16T08:03:49.030Z,5.00
2022-08-16T08:06:57.519Z,6.63
2022-08-16T08:10:00.701Z,8.00
2022-08-16T08:13:04.984Z,6.10
2022-08-16T08:16:18.590Z,4.97
2022-08-16T08:19:24.180Z,12.98
2022-08-16T08:22:30.453Z,6.25
2022-08-16T08:25:55.061Z,6.43
2022-08-16T08:29:03.129Z,7.93
2022-08-16T08:32:58.337Z,8.80
2022-08-16T08:35:40.164Z,5.03
2022-08-16T08:38:46.304Z,7.13
2022-08-16T08:41:55.019Z,5.63
2022-08-16T08:44:59.683Z,7.90
2022-08-16T08:48:05.867Z,4.70
2022-08-16T08:51:11.150Z,8.25
2022-08-16T08:54:26.991Z,5.95
2022-08-16T08:57:31.725Z,5.80
2022-08-16T09:00:52.973Z,6.88
2022-08-16T09:03:57.731Z,11.95
2022-08-16T09:07:01.237Z,15.02
2022-08-16T09:10:20.318Z,11.23
2022-08-16T09:13:25.384Z,3.53
2022-08-16T09:19:55.119Z,9.73
2022-08-16T09:23:03.939Z,6.25
2022-08-16T09:26:44.637Z,6.55
2022-08-16T09:29:44.353Z,11.38
2022-08-16T09:32:51.733Z,8.18
2022-08-16T09:35:56.857Z,3.60
2022-08-16T09:39:02.722Z,3.58
2022-08-16T09:42:05.833Z,19.02
2022-08-16T09:45:18.353Z,3.58
2022-08-16T09:48:36.906Z,3.67
2022-08-16T09:51:44.790Z,11.88
2022-08-16T09:54:47.898Z,6.78
2022-08-16T09:57:53.820Z,14.27
2022-08-16T10:00:56.968Z,6.32
2022-08-16T10:04:01.802Z,4.25
2022-08-16T10:07:14.984Z,4.35
2022-08-16T10:10:31.059Z,4.63
2022-08-16T10:13:35.056Z,3.85
2022-08-16T10:16:38.940Z,2.70
2022-08-16T10:19:43.256Z,3.83
2022-08-16T10:22:46.712Z,3.97
2022-08-16T10:27:16.670Z,5.45
2022-08-16T10:29:19.867Z,5.43
2022-08-16T10:32:24.128Z,7.93
2022-08-16T10:35:33.445Z,7.18
2022-08-16T10:38:39.103Z,6.75
2022-08-16T10:41:45.736Z,4.85
2022-08-16T10:44:53.690Z,10.87
2022-08-16T10:48:02.867Z,4.50
2022-08-16T10:51:07.395Z,9.90
2022-08-16T10:54:21.230Z,6.60
2022-08-16T10:57:33.321Z,11.13
2022-08-16T11:00:41.319Z,38.08
2022-08-16T11:03:47.141Z,13.32
2022-08-16T11:11:05.343Z,8.70
2022-08-16T11:13:59.235Z,6.25
2022-08-16T11:17:10.596Z,12.32
2022-08-16T11:23:38.052Z,6.22
2022-08-16T11:30:36.866Z,6.20
2022-08-16T11:33:57.585Z,9.88
2022-08-16T11:37:02.757Z,11.20
2022-08-16T11:40:10.219Z,8.80
2022-08-16T11:43:21.733Z,4.72
2022-08-16T11:46:44.972Z,5.47
2022-08-16T11:49:49.229Z,7.90
2022-08-16T11:52:53.629Z,11.07
2022-08-16T11:55:58.839Z,10.00
2022-08-16T11:59:03.060Z,6.63
2022-08-16T12:02:32.395Z,8.02
2022-08-16T12:05:34.478Z,5.65
2022-08-16T12:08:37.591Z,8.63
2022-08-16T12:11:41.314Z,16.45
2022-08-16T12:14:47.049Z,10.93
2022-08-16T12:17:50.879Z,10.32
2022-08-16T12:20:58.205Z,15.63
2022-08-16T12:24:01.636Z,10.68
2022-08-16T12:27:07.249Z,14.32
2022-08-16T12:30:21.786Z,10.38
2022-08-16T12:33:30.065Z,8.63
2022-08-16T12:36:33.078Z,13.75
2022-08-16T12:39:36.294Z,8.75
2022-08-16T12:42:40.031Z,8.83
2022-08-16T12:45:56.940Z,15.60
2022-08-16T12:49:04.119Z,13.38
2022-08-16T12:52:07.202Z,9.27
2022-08-16T12:55:14.309Z,17.65
2022-08-16T12:58:47.413Z,15.18
2022-08-16T13:01:46.636Z,14.48
2022-08-16T13:04:49.803Z,13.68
2022-08-16T13:07:54.593Z,9.70
2022-08-16T13:10:58.688Z,12.95
2022-08-16T13:14:01.964Z,13.70
2022-08-16T13:17:17.103Z,9.77
2022-08-16T13:20:26.758Z,17.40
2022-08-16T13:23:29.896Z,18.15
2022-08-16T13:26:33.253Z,16.60
2022-08-16T13:29:39.934Z,11.82
2022-08-16T13:32:47.343Z,7.32
2022-08-16T13:35:57.752Z,11.18
2022-08-16T13:39:06.641Z,10.82
2022-08-16T13:42:13.610Z,10.48
2022-08-16T13:45:17.765Z,7.25
2022-08-16T13:48:25.967Z,7.57
2022-08-16T13:51:30.910Z,7.18
2022-08-16T13:54:34.036Z,9.23
2022-08-16T13:58:35.306Z,10.30
2022-08-16T14:01:01.699Z,9.80
2022-08-16T14:04:06.003Z,9.73
2022-08-16T14:07:19.867Z,11.82
2022-08-16T14:10:28.130Z,6.63
2022-08-16T14:13:31.171Z,9.73
2022-08-16T14:16:37.203Z,10.50
2022-08-16T14:19:44.939Z,9.55
2022-08-16T14:22:52.489Z,8.10
2022-08-16T14:25:58.285Z,9.65
2022-08-16T14:29:03.817Z,9.68
2022-08-16T14:32:09.346Z,7.80
2022-08-16T14:35:20.761Z,9.32
2022-08-16T14:38:24.293Z,5.68
2022-08-16T14:41:32.684Z,6.60
2022-08-16T14:44:36.684Z,6.03
2022-08-16T14:47:42.312Z,8.50
2022-08-16T14:50:45.811Z,5.13
2022-08-16T14:53:49.817Z,5.07
2022-08-16T14:56:55.493Z,5.78
2022-08-16T15:00:04.671Z,5.25
2022-08-16T15:03:11.278Z,6.60
2022-08-16T15:06:16.307Z,13.13
2022-08-16T15:09:19.827Z,10.18
2022-08-16T15:12:33.472Z,5.68
2022-08-16T15:15:38.091Z,5.85
2022-08-16T15:18:41.139Z,5.43
2022-08-16T15:21:44.196Z,11.60
2022-08-16T15:24:47.197Z,5.47
2022-08-16T15:27:55.439Z,4.95
2022-08-16T15:31:01.021Z,8.18
2022-08-16T15:34:06.527Z,6.97
2022-08-16T15:37:17.567Z,8.70
2022-08-16T15:40:32.166Z,10.13
2022-08-16T15:43:39.902Z,20.67
2022-08-16T15:46:55.627Z,10.38
2022-08-16T15:50:01.883Z,8.77
2022-08-16T15:53:15.525Z,6.47
2022-08-16T15:56:18.596Z,9.10
2022-08-16T16:02:31.380Z,7.55
2022-08-16T16:05:36.648Z,9.88
2022-08-16T16:08:41.727Z,8.57
2022-08-16T16:11:48.683Z,10.00
2022-08-16T16:14:53.401Z,10.82
2022-08-16T16:17:56.867Z,8.57
2022-08-16T16:21:09.183Z,4.72
2022-08-16T16:24:21.655Z,4.97
2022-08-16T16:27:27.369Z,5.95
2022-08-16T16:30:33.037Z,2.10
2022-08-16T16:33:50.555Z,3.90
2022-08-16T16:36:53.636Z,2.55
2022-08-16T16:39:57.647Z,2.43
2022-08-16T16:43:04.340Z,2.25
2022-08-16T16:46:41.333Z,2.42
2022-08-16T16:49:34.669Z,1.65
2022-08-16T16:52:47.328Z,3.05
2022-08-16T16:55:52.265Z,3.70
2022-08-16T16:59:00.992Z,1.58
2022-08-16T17:02:41.691Z,4.07
2022-08-16T17:05:32.560Z,2.17
2022-08-16T17:08:35.839Z,2.42
2022-08-16T17:11:41.862Z,2.95
2022-08-16T17:14:44.877Z,3.75
2022-08-16T17:17:59.998Z,2.20
2022-08-16T17:21:06.882Z,1.90
2022-08-16T17:24:17.365Z,3.45
2022-08-16T17:27:33.827Z,1.20
2022-08-16T17:33:54.679Z,1.88
2022-08-16T17:36:59.797Z,5.80
2022-08-16T17:40:04.013Z,1.35
2022-08-16T17:43:11.195Z,1.02
2022-08-16T17:46:51.557Z,1.15
2022-08-16T17:49:40.127Z,1.42
2022-08-16T17:52:49.180Z,1.17
2022-08-16T17:55:55.042Z,3.05
2022-08-16T17:58:58.073Z,3.75
2022-08-16T18:02:01.148Z,3.13
2022-08-16T18:05:20.906Z,4.07
2022-08-16T18:08:26.195Z,3.72
2022-08-16T18:11:41.166Z,6.32
2022-08-16T18:14:50.877Z,6.43
2022-08-16T18:17:55.701Z,4.90
2022-08-16T18:21:17.420Z,3.80
2022-08-16T18:24:20.997Z,2.55
2022-08-16T18:27:26.222Z,4.45
2022-08-16T18:30:30.301Z,1.70
2022-08-16T18:33:43.316Z,1.92
2022-08-16T18:36:47.316Z,1.60
2022-08-16T18:39:50.377Z,2.75
2022-08-16T18:42:59.603Z,1.80
2022-08-16T18:46:02.657Z,1.80
2022-08-16T18:49:05.887Z,1.98
2022-08-16T18:52:08.945Z,2.03
2022-08-16T18:55:13.919Z,2.92
2022-08-16T18:58:17.901Z,1.65
2022-08-16T19:01:21.050Z,2.47
2022-08-16T19:04:55.098Z,4.63
2022-08-16T19:07:47.144Z,4.63
2022-08-16T19:10:51.669Z,4.78
2022-08-16T19:13:55.022Z,5.43
2022-08-16T19:16:58.188Z,5.25
2022-08-16T19:20:01.318Z,4.88
2022-08-16T19:23:10.489Z,2.25
2022-08-16T19:26:24.511Z,4.03
2022-08-16T19:29:29.769Z,2.92
2022-08-16T19:32:33.521Z,3.33
2022-08-16T19:35:38.138Z,2.15
2022-08-16T19:38:41.186Z,1.42
2022-08-16T19:41:52.978Z,1.38
2022-08-16T19:44:59.895Z,1.65
2022-08-16T19:48:04.432Z,1.58
2022-08-16T19:51:09.512Z,1.40
2022-08-16T19:54:12.565Z,1.67
2022-08-16T19:57:17.392Z,1.40
2022-08-16T20:03:25.054Z,1.23
2022-08-16T20:06:37.492Z,1.30
2022-08-16T20:09:42.095Z,1.58
2022-08-16T20:12:58.263Z,3.08
2022-08-16T20:16:05.670Z,5.05
2022-08-16T20:19:08.850Z,1.95
2022-08-16T20:22:49.821Z,1.42
2022-08-16T20:25:50.009Z,4.35
2022-08-16T20:28:55.154Z,6.93
2022-08-16T20:31:58.573Z,3.78
2022-08-16T20:35:02.705Z,4.03
2022-08-16T20:38:05.764Z,6.85
2022-08-16T20:41:09.362Z,3.88
2022-08-16T20:44:13.256Z,4.13
2022-08-16T20:47:16.428Z,3.92
2022-08-16T20:50:19.656Z,4.75
2022-08-16T20:53:23.804Z,10.05
2022-08-16T20:56:27.115Z,3.90
2022-08-16T20:59:30.604Z,1.65
2022-08-16T21:02:33.694Z,2.55
2022-08-16T21:05:41.047Z,7.05
2022-08-16T21:08:53.522Z,3.45
2022-08-16T21:11:59.443Z,2.75
2022-08-16T21:15:08.033Z,6.22
2022-08-16T21:18:11.019Z,4.13
2022-08-16T21:21:14.080Z,5.38
2022-08-16T21:24:17.809Z,3.15
2022-08-16T21:27:20.926Z,5.53
2022-08-16T21:30:29.997Z,3.55
2022-08-16T21:33:35.786Z,3.42
2022-08-16T21:36:38.826Z,8.15
2022-08-16T21:39:41.913Z,5.43
2022-08-16T21:42:45.758Z,5.47
2022-08-16T21:45:48.950Z,8.43
2022-08-16T21:48:58.537Z,7.93
2022-08-16T21:52:03.419Z,6.50
2022-08-16T21:55:07.689Z,5.38
2022-08-16T21:58:11.558Z,6.90
2022-08-16T22:01:14.679Z,12.32
2022-08-16T22:04:37.730Z,33.70
2022-08-16T22:07:41.813Z,10.13
2022-08-16T22:11:07.838Z,17.65
2022-08-16T22:14:08.540Z,12.13
2022-08-16T22:17:11.751Z,13.82
2022-08-16T22:20:14.790Z,13.45
2022-08-16T22:23:25.104Z,12.38
2022-08-16T22:26:32.749Z,9.27
2022-08-16T22:29:35.788Z,17.40
2022-08-16T22:32:44.936Z,13.02
2022-08-16T22:35:51.706Z,12.00
2022-08-16T22:38:57.445Z,18.42
2022-08-16T22:42:09.011Z,10.52
2022-08-16T22:45:12.881Z,9.38
2022-08-16T22:48:17.658Z,11.37
2022-08-16T22:51:22.936Z,9.23
2022-08-16T22:54:44.280Z,5.75
2022-08-16T22:57:49.437Z,6.78
2022-08-16T23:00:52.398Z,6.43
2022-08-16T23:03:56.252Z,17.65
2022-08-16T23:06:59.395Z,3.83
2022-08-16T23:10:02.458Z,6.63
2022-08-16T23:13:08.023Z,11.50
2022-08-16T23:16:11.838Z,6.18
2022-08-16T23:19:16.849Z,5.35
2022-08-16T23:25:30.690Z,9.50
2022-08-16T23:28:33.693Z,6.50
2022-08-16T23:31:36.679Z,6.55
2022-08-16T23:34:41.776Z,6.60
2022-08-16T23:37:44.973Z,10.13
2022-08-16T23:40:49.152Z,10.15
2022-08-16T23:43:52.147Z,8.40
2022-08-16T23:46:55.267Z,6.68
2022-08-16T23:50:03.672Z,5.95
2022-08-16T23:53:14.256Z,20.30
2022-08-16T23:56:20.811Z,18.25
2022-08-16T23:59:23.793Z,9.77
